KCOS/COS METAR and TAF weather

Enter ICAO airport designator
Station Type Date Time Source
KCOS METAR 2020/09/25 07:54 UTC NOAA

KCOS 250754Z 01008KT 10SM CLR 13/M01 A3007 RMK AO2 SLP096 T01331011


Station Type Date Time Source
KCOS Decoded METAR 2020/09/25 07:54 UTC NOAA

COLORADO SPRINGS MUNI, CO, United States (KCOS) 38-49N 104-43W 1856M
Sep 25, 2020 - 03:54 AM EDT / 2020.09.25 0754 UTC
Wind: from the N (010 degrees) at 9 MPH (8 KT):0
Visibility: 10 mile(s):0
Sky conditions: clear
Temperature: 55.9 F (13.3 C)
Dew Point: 30.0 F (-1.1 C)
Relative Humidity: 36%
Pressure (altimeter): 30.07 in. Hg (1018 hPa)
ob: KCOS 250754Z 01008KT 10SM CLR 13/M01 A3007 RMK AO2 SLP096 T01331011
cycle: 8

Station Type Date Time Source
KCOS TAF 2020/09/25 06:24 UTC NOAA

TAF KCOS 250521Z 2506/2606 35007KT P6SM SKC
FM251800 18012G22KT P6SM SKC
FM260300 33007KT P6SM SKC

Example: see airport list